sensor_id;sensor_type;location;lat;lon;timestamp;temperature;humidity
68801;SHT31;55784;50.734;7.086;2022-12-07T00:00:39;5.38;93.77
68801;SHT31;55784;50.734;7.086;2022-12-07T00:03:05;5.43;93.86
68801;SHT31;55784;50.734;7.086;2022-12-07T00:05:30;5.45;93.71
68801;SHT31;55784;50.734;7.086;2022-12-07T00:07:55;5.48;93.31
68801;SHT31;55784;50.734;7.086;2022-12-07T00:10:21;5.52;93.50
68801;SHT31;55784;50.734;7.086;2022-12-07T00:12:46;5.48;93.35
68801;SHT31;55784;50.734;7.086;2022-12-07T00:15:11;5.51;93.44
68801;SHT31;55784;50.734;7.086;2022-12-07T00:17:37;5.54;93.24
68801;SHT31;55784;50.734;7.086;2022-12-07T00:20:02;5.56;92.99
68801;SHT31;55784;50.734;7.086;2022-12-07T00:22:28;5.48;93.41
68801;SHT31;55784;50.734;7.086;2022-12-07T00:24:53;5.43;93.59
68801;SHT31;55784;50.734;7.086;2022-12-07T00:27:18;5.45;93.70
68801;SHT31;55784;50.734;7.086;2022-12-07T00:29:44;5.43;93.58
68801;SHT31;55784;50.734;7.086;2022-12-07T00:32:09;5.48;93.19
68801;SHT31;55784;50.734;7.086;2022-12-07T00:34:34;5.50;93.31
68801;SHT31;55784;50.734;7.086;2022-12-07T00:37:00;5.58;93.48
68801;SHT31;55784;50.734;7.086;2022-12-07T00:39:25;5.55;93.18
68801;SHT31;55784;50.734;7.086;2022-12-07T00:41:50;5.44;93.45
68801;SHT31;55784;50.734;7.086;2022-12-07T00:44:16;5.50;93.41
68801;SHT31;55784;50.734;7.086;2022-12-07T00:46:41;5.55;93.33
68801;SHT31;55784;50.734;7.086;2022-12-07T00:49:06;5.58;93.01
68801;SHT31;55784;50.734;7.086;2022-12-07T00:51:32;5.72;92.97
68801;SHT31;55784;50.734;7.086;2022-12-07T00:53:57;5.72;92.67
68801;SHT31;55784;50.734;7.086;2022-12-07T00:56:25;5.79;92.34
68801;SHT31;55784;50.734;7.086;2022-12-07T00:59:03;5.74;92.33
68801;SHT31;55784;50.734;7.086;2022-12-07T01:01:31;5.71;92.50
68801;SHT31;55784;50.734;7.086;2022-12-07T01:03:57;5.69;92.19
68801;SHT31;55784;50.734;7.086;2022-12-07T01:06:23;5.64;92.61
68801;SHT31;55784;50.734;7.086;2022-12-07T01:08:49;5.55;92.96
68801;SHT31;55784;50.734;7.086;2022-12-07T01:11:17;5.50;93.26
68801;SHT31;55784;50.734;7.086;2022-12-07T01:13:42;5.55;93.25
68801;SHT31;55784;50.734;7.086;2022-12-07T01:16:11;5.52;93.13
68801;SHT31;55784;50.734;7.086;2022-12-07T01:18:36;5.50;92.95
68801;SHT31;55784;50.734;7.086;2022-12-07T01:21:12;5.48;93.04
68801;SHT31;55784;50.734;7.086;2022-12-07T01:23:38;5.41;93.31
68801;SHT31;55784;50.734;7.086;2022-12-07T01:26:06;5.43;93.48
68801;SHT31;55784;50.734;7.086;2022-12-07T01:28:32;5.41;93.59
68801;SHT31;55784;50.734;7.086;2022-12-07T01:31:05;5.45;93.84
68801;SHT31;55784;50.734;7.086;2022-12-07T01:33:35;5.44;93.82
68801;SHT31;55784;50.734;7.086;2022-12-07T01:36:08;5.47;93.70
68801;SHT31;55784;50.734;7.086;2022-12-07T01:38:38;5.47;93.62
68801;SHT31;55784;50.734;7.086;2022-12-07T01:41:03;5.51;93.88
68801;SHT31;55784;50.734;7.086;2022-12-07T01:43:30;5.50;93.54
68801;SHT31;55784;50.734;7.086;2022-12-07T01:45:56;5.51;93.53
68801;SHT31;55784;50.734;7.086;2022-12-07T01:48:46;5.52;93.15
68801;SHT31;55784;50.734;7.086;2022-12-07T01:51:12;5.52;93.31
68801;SHT31;55784;50.734;7.086;2022-12-07T01:53:42;5.52;93.54
68801;SHT31;55784;50.734;7.086;2022-12-07T01:56:11;5.56;93.14
68801;SHT31;55784;50.734;7.086;2022-12-07T01:58:37;5.61;93.11
68801;SHT31;55784;50.734;7.086;2022-12-07T02:01:03;5.61;93.13
68801;SHT31;55784;50.734;7.086;2022-12-07T02:03:34;5.59;93.41
68801;SHT31;55784;50.734;7.086;2022-12-07T02:06:01;5.52;93.17
68801;SHT31;55784;50.734;7.086;2022-12-07T02:08:27;5.50;93.65
68801;SHT31;55784;50.734;7.086;2022-12-07T02:10:52;5.51;93.80
68801;SHT31;55784;50.734;7.086;2022-12-07T02:13:21;5.43;93.68
68801;SHT31;55784;50.734;7.086;2022-12-07T02:21:42;5.51;94.09
68801;SHT31;55784;50.734;7.086;2022-12-07T02:30:15;5.50;93.94
68801;SHT31;55784;50.734;7.086;2022-12-07T02:33:01;5.54;93.96
68801;SHT31;55784;50.734;7.086;2022-12-07T02:35:48;5.55;94.40
68801;SHT31;55784;50.734;7.086;2022-12-07T02:38:30;5.51;94.47
68801;SHT31;55784;50.734;7.086;2022-12-07T02:43:35;5.45;94.50
68801;SHT31;55784;50.734;7.086;2022-12-07T02:46:13;5.54;94.27
68801;SHT31;55784;50.734;7.086;2022-12-07T02:48:39;5.51;94.39
68801;SHT31;55784;50.734;7.086;2022-12-07T02:51:06;5.47;94.51
68801;SHT31;55784;50.734;7.086;2022-12-07T02:53:40;5.48;94.39
68801;SHT31;55784;50.734;7.086;2022-12-07T03:02:01;5.47;94.45
68801;SHT31;55784;50.734;7.086;2022-12-07T03:04:55;5.47;94.06
68801;SHT31;55784;50.734;7.086;2022-12-07T03:10:22;5.51;94.45
68801;SHT31;55784;50.734;7.086;2022-12-07T03:15:40;5.47;95.02
68801;SHT31;55784;50.734;7.086;2022-12-07T03:18:07;5.48;94.99
68801;SHT31;55784;50.734;7.086;2022-12-07T03:20:37;5.51;94.94
68801;SHT31;55784;50.734;7.086;2022-12-07T03:23:05;5.44;94.78
68801;SHT31;55784;50.734;7.086;2022-12-07T03:25:35;5.45;94.94
68801;SHT31;55784;50.734;7.086;2022-12-07T03:28:05;5.43;94.97
68801;SHT31;55784;50.734;7.086;2022-12-07T03:30:52;5.47;95.12
68801;SHT31;55784;50.734;7.086;2022-12-07T03:33:27;5.48;94.85
68801;SHT31;55784;50.734;7.086;2022-12-07T03:36:00;5.47;94.78
68801;SHT31;55784;50.734;7.086;2022-12-07T03:38:36;5.45;95.15
68801;SHT31;55784;50.734;7.086;2022-12-07T03:41:11;5.45;95.39
68801;SHT31;55784;50.734;7.086;2022-12-07T03:43:39;5.51;95.61
68801;SHT31;55784;50.734;7.086;2022-12-07T03:49:00;5.47;95.62
68801;SHT31;55784;50.734;7.086;2022-12-07T03:51:45;5.43;95.12
68801;SHT31;55784;50.734;7.086;2022-12-07T03:54:26;5.48;95.41
68801;SHT31;55784;50.734;7.086;2022-12-07T03:56:54;5.40;95.28
68801;SHT31;55784;50.734;7.086;2022-12-07T03:59:20;5.47;95.32
68801;SHT31;55784;50.734;7.086;2022-12-07T04:01:53;5.40;95.26
68801;SHT31;55784;50.734;7.086;2022-12-07T04:04:20;5.48;95.19
68801;SHT31;55784;50.734;7.086;2022-12-07T04:06:45;5.47;94.82
68801;SHT31;55784;50.734;7.086;2022-12-07T04:09:10;5.45;95.09
68801;SHT31;55784;50.734;7.086;2022-12-07T04:11:36;5.43;94.99
68801;SHT31;55784;50.734;7.086;2022-12-07T04:14:01;5.43;95.11
68801;SHT31;55784;50.734;7.086;2022-12-07T04:16:49;5.44;95.33
68801;SHT31;55784;50.734;7.086;2022-12-07T04:19:20;5.44;95.13
68801;SHT31;55784;50.734;7.086;2022-12-07T04:21:46;5.44;95.18
68801;SHT31;55784;50.734;7.086;2022-12-07T04:24:12;5.40;95.42
68801;SHT31;55784;50.734;7.086;2022-12-07T04:26:38;5.37;95.44
68801;SHT31;55784;50.734;7.086;2022-12-07T04:29:03;5.34;95.54
68801;SHT31;55784;50.734;7.086;2022-12-07T04:31:29;5.37;95.34
68801;SHT31;55784;50.734;7.086;2022-12-07T04:33:54;5.40;95.56
68801;SHT31;55784;50.734;7.086;2022-12-07T04:36:19;5.37;95.66
68801;SHT31;55784;50.734;7.086;2022-12-07T04:38:46;5.31;95.92
68801;SHT31;55784;50.734;7.086;2022-12-07T04:41:11;5.35;95.85
68801;SHT31;55784;50.734;7.086;2022-12-07T04:43:37;5.34;96.04
68801;SHT31;55784;50.734;7.086;2022-12-07T04:46:02;5.33;95.87
68801;SHT31;55784;50.734;7.086;2022-12-07T04:48:28;5.30;95.85
68801;SHT31;55784;50.734;7.086;2022-12-07T04:50:53;5.33;95.43
68801;SHT31;55784;50.734;7.086;2022-12-07T04:53:18;5.33;95.62
68801;SHT31;55784;50.734;7.086;2022-12-07T04:55:45;5.30;95.50
68801;SHT31;55784;50.734;7.086;2022-12-07T04:58:10;5.30;95.50
68801;SHT31;55784;50.734;7.086;2022-12-07T05:00:36;5.24;95.74
68801;SHT31;55784;50.734;7.086;2022-12-07T05:03:01;5.19;95.79
68801;SHT31;55784;50.734;7.086;2022-12-07T05:05:27;5.20;95.89
68801;SHT31;55784;50.734;7.086;2022-12-07T05:07:52;5.19;95.73
68801;SHT31;55784;50.734;7.086;2022-12-07T05:10:17;5.19;95.67
68801;SHT31;55784;50.734;7.086;2022-12-07T05:12:43;5.14;95.82
68801;SHT31;55784;50.734;7.086;2022-12-07T05:15:08;5.17;95.97
68801;SHT31;55784;50.734;7.086;2022-12-07T05:17:34;5.16;95.86
68801;SHT31;55784;50.734;7.086;2022-12-07T05:19:59;5.17;96.07
68801;SHT31;55784;50.734;7.086;2022-12-07T05:22:24;5.14;96.28
68801;SHT31;55784;50.734;7.086;2022-12-07T05:24:53;5.11;95.95
68801;SHT31;55784;50.734;7.086;2022-12-07T05:27:19;5.13;96.13
68801;SHT31;55784;50.734;7.086;2022-12-07T05:29:44;5.11;95.78
68801;SHT31;55784;50.734;7.086;2022-12-07T05:32:09;5.07;96.00
68801;SHT31;55784;50.734;7.086;2022-12-07T05:34:38;5.06;95.78
68801;SHT31;55784;50.734;7.086;2022-12-07T05:37:03;5.06;95.80
68801;SHT31;55784;50.734;7.086;2022-12-07T05:39:29;5.09;95.86
68801;SHT31;55784;50.734;7.086;2022-12-07T05:41:54;5.14;95.23
68801;SHT31;55784;50.734;7.086;2022-12-07T05:44:39;5.14;95.22
68801;SHT31;55784;50.734;7.086;2022-12-07T05:47:04;5.16;94.95
68801;SHT31;55784;50.734;7.086;2022-12-07T05:49:30;5.14;95.18
68801;SHT31;55784;50.734;7.086;2022-12-07T05:51:55;5.14;95.36
68801;SHT31;55784;50.734;7.086;2022-12-07T05:54:20;5.03;95.50
68801;SHT31;55784;50.734;7.086;2022-12-07T05:56:46;5.04;95.66
68801;SHT31;55784;50.734;7.086;2022-12-07T05:59:11;5.01;95.70
68801;SHT31;55784;50.734;7.086;2022-12-07T06:04:26;5.06;95.41
68801;SHT31;55784;50.734;7.086;2022-12-07T06:06:52;5.03;95.38
68801;SHT31;55784;50.734;7.086;2022-12-07T06:09:19;5.03;95.31
68801;SHT31;55784;50.734;7.086;2022-12-07T06:11:45;5.07;95.37
68801;SHT31;55784;50.734;7.086;2022-12-07T06:14:29;5.11;95.40
68801;SHT31;55784;50.734;7.086;2022-12-07T06:16:54;5.11;95.24
68801;SHT31;55784;50.734;7.086;2022-12-07T06:19:20;5.11;95.04
68801;SHT31;55784;50.734;7.086;2022-12-07T06:21:45;5.11;94.85
68801;SHT31;55784;50.734;7.086;2022-12-07T06:24:12;5.14;95.16
68801;SHT31;55784;50.734;7.086;2022-12-07T06:26:38;5.13;95.32
68801;SHT31;55784;50.734;7.086;2022-12-07T06:29:04;5.13;95.54
68801;SHT31;55784;50.734;7.086;2022-12-07T06:31:30;5.14;95.66
68801;SHT31;55784;50.734;7.086;2022-12-07T06:34:00;5.11;95.82
68801;SHT31;55784;50.734;7.086;2022-12-07T06:36:26;5.07;96.56
68801;SHT31;55784;50.734;7.086;2022-12-07T06:38:51;4.96;96.43
68801;SHT31;55784;50.734;7.086;2022-12-07T06:41:17;4.93;96.94
68801;SHT31;55784;50.734;7.086;2022-12-07T06:43:42;4.86;97.26
68801;SHT31;55784;50.734;7.086;2022-12-07T06:46:08;4.82;97.48
68801;SHT31;55784;50.734;7.086;2022-12-07T06:48:33;4.76;97.58
68801;SHT31;55784;50.734;7.086;2022-12-07T06:50:59;4.72;97.62
68801;SHT31;55784;50.734;7.086;2022-12-07T06:53:24;4.76;97.16
68801;SHT31;55784;50.734;7.086;2022-12-07T06:55:50;4.79;97.02
68801;SHT31;55784;50.734;7.086;2022-12-07T06:58:15;4.80;96.91
68801;SHT31;55784;50.734;7.086;2022-12-07T07:00:40;4.79;96.58
68801;SHT31;55784;50.734;7.086;2022-12-07T07:03:06;4.79;96.50
68801;SHT31;55784;50.734;7.086;2022-12-07T07:05:31;4.77;96.41
68801;SHT31;55784;50.734;7.086;2022-12-07T07:07:57;4.79;96.40
68801;SHT31;55784;50.734;7.086;2022-12-07T07:10:22;4.79;95.97
68801;SHT31;55784;50.734;7.086;2022-12-07T07:12:48;4.82;95.81
68801;SHT31;55784;50.734;7.086;2022-12-07T07:15:13;4.80;95.57
68801;SHT31;55784;50.734;7.086;2022-12-07T07:17:42;4.79;95.28
68801;SHT31;55784;50.734;7.086;2022-12-07T07:20:08;4.77;95.26
68801;SHT31;55784;50.734;7.086;2022-12-07T07:22:33;4.76;95.00
68801;SHT31;55784;50.734;7.086;2022-12-07T07:24:59;4.75;95.36
68801;SHT31;55784;50.734;7.086;2022-12-07T07:27:24;4.72;95.21
68801;SHT31;55784;50.734;7.086;2022-12-07T07:29:50;4.77;95.13
68801;SHT31;55784;50.734;7.086;2022-12-07T07:32:18;4.79;94.78
68801;SHT31;55784;50.734;7.086;2022-12-07T07:34:44;4.82;94.98
68801;SHT31;55784;50.734;7.086;2022-12-07T07:37:10;4.84;94.93
68801;SHT31;55784;50.734;7.086;2022-12-07T07:39:37;4.89;94.78
68801;SHT31;55784;50.734;7.086;2022-12-07T07:42:03;4.92;94.74
68801;SHT31;55784;50.734;7.086;2022-12-07T07:44:29;4.97;94.54
68801;SHT31;55784;50.734;7.086;2022-12-07T07:46:54;5.01;94.40
68801;SHT31;55784;50.734;7.086;2022-12-07T07:49:20;5.06;94.49
68801;SHT31;55784;50.734;7.086;2022-12-07T07:51:45;5.09;94.21
68801;SHT31;55784;50.734;7.086;2022-12-07T07:54:10;5.10;94.30
68801;SHT31;55784;50.734;7.086;2022-12-07T07:56:36;5.14;94.30
68801;SHT31;55784;50.734;7.086;2022-12-07T07:59:02;5.13;94.35
68801;SHT31;55784;50.734;7.086;2022-12-07T08:01:27;5.21;94.35
68801;SHT31;55784;50.734;7.086;2022-12-07T08:03:52;5.28;94.85
68801;SHT31;55784;50.734;7.086;2022-12-07T08:06:18;5.27;94.87
68801;SHT31;55784;50.734;7.086;2022-12-07T08:08:43;5.21;94.82
68801;SHT31;55784;50.734;7.086;2022-12-07T08:11:09;5.23;95.37
68801;SHT31;55784;50.734;7.086;2022-12-07T08:13:35;5.30;95.60
68801;SHT31;55784;50.734;7.086;2022-12-07T08:16:06;5.30;95.65
68801;SHT31;55784;50.734;7.086;2022-12-07T08:18:35;5.19;95.72
68801;SHT31;55784;50.734;7.086;2022-12-07T08:21:02;5.14;95.83
68801;SHT31;55784;50.734;7.086;2022-12-07T08:23:28;5.14;95.90
68801;SHT31;55784;50.734;7.086;2022-12-07T08:25:54;5.17;95.36
68801;SHT31;55784;50.734;7.086;2022-12-07T08:28:20;5.20;95.22
68801;SHT31;55784;50.734;7.086;2022-12-07T08:30:45;5.26;95.27
68801;SHT31;55784;50.734;7.086;2022-12-07T08:33:10;5.34;94.59
68801;SHT31;55784;50.734;7.086;2022-12-07T08:35:36;5.45;93.92
68801;SHT31;55784;50.734;7.086;2022-12-07T08:38:02;5.52;93.62
68801;SHT31;55784;50.734;7.086;2022-12-07T08:40:37;5.69;93.41
68801;SHT31;55784;50.734;7.086;2022-12-07T08:43:02;5.82;92.95
68801;SHT31;55784;50.734;7.086;2022-12-07T08:45:28;5.92;92.35
68801;SHT31;55784;50.734;7.086;2022-12-07T08:48:02;5.88;92.18
68801;SHT31;55784;50.734;7.086;2022-12-07T08:50:29;5.79;92.71
68801;SHT31;55784;50.734;7.086;2022-12-07T08:52:57;5.69;92.97
68801;SHT31;55784;50.734;7.086;2022-12-07T08:55:24;5.66;93.24
68801;SHT31;55784;50.734;7.086;2022-12-07T08:57:52;5.61;93.45
68801;SHT31;55784;50.734;7.086;2022-12-07T09:00:18;5.71;93.62
68801;SHT31;55784;50.734;7.086;2022-12-07T09:02:44;5.64;93.49
68801;SHT31;55784;50.734;7.086;2022-12-07T09:05:10;5.59;93.31
68801;SHT31;55784;50.734;7.086;2022-12-07T09:07:40;5.54;93.43
68801;SHT31;55784;50.734;7.086;2022-12-07T09:10:07;5.56;93.66
68801;SHT31;55784;50.734;7.086;2022-12-07T09:12:33;5.58;93.48
68801;SHT31;55784;50.734;7.086;2022-12-07T09:14:58;5.66;93.29
68801;SHT31;55784;50.734;7.086;2022-12-07T09:17:25;5.75;92.60
68801;SHT31;55784;50.734;7.086;2022-12-07T09:19:51;5.85;92.18
68801;SHT31;55784;50.734;7.086;2022-12-07T09:22:16;5.98;91.83
68801;SHT31;55784;50.734;7.086;2022-12-07T09:24:41;6.09;91.52
68801;SHT31;55784;50.734;7.086;2022-12-07T09:27:07;6.10;91.09
68801;SHT31;55784;50.734;7.086;2022-12-07T09:29:32;6.12;90.95
68801;SHT31;55784;50.734;7.086;2022-12-07T09:31:57;6.15;90.77
68801;SHT31;55784;50.734;7.086;2022-12-07T09:34:23;6.05;91.47
68801;SHT31;55784;50.734;7.086;2022-12-07T09:36:48;6.13;91.15
68801;SHT31;55784;50.734;7.086;2022-12-07T09:39:14;6.12;91.21
68801;SHT31;55784;50.734;7.086;2022-12-07T09:41:43;5.98;91.09
68801;SHT31;55784;50.734;7.086;2022-12-07T09:44:12;5.95;90.93
68801;SHT31;55784;50.734;7.086;2022-12-07T09:46:42;5.95;91.19
68801;SHT31;55784;50.734;7.086;2022-12-07T09:49:27;6.05;91.07
68801;SHT31;55784;50.734;7.086;2022-12-07T09:52:17;6.12;90.44
68801;SHT31;55784;50.734;7.086;2022-12-07T09:54:46;6.15;90.53
68801;SHT31;55784;50.734;7.086;2022-12-07T09:57:12;6.27;90.42
68801;SHT31;55784;50.734;7.086;2022-12-07T09:59:38;6.32;90.15
68801;SHT31;55784;50.734;7.086;2022-12-07T10:04:55;6.50;89.13
68801;SHT31;55784;50.734;7.086;2022-12-07T10:07:21;6.49;89.50
68801;SHT31;55784;50.734;7.086;2022-12-07T10:09:46;6.50;89.71
68801;SHT31;55784;50.734;7.086;2022-12-07T10:12:12;6.60;89.37
68801;SHT31;55784;50.734;7.086;2022-12-07T10:14:39;6.57;89.29
68801;SHT31;55784;50.734;7.086;2022-12-07T10:17:41;6.71;88.41
68801;SHT31;55784;50.734;7.086;2022-12-07T10:23:03;6.66;88.31
68801;SHT31;55784;50.734;7.086;2022-12-07T10:25:36;6.63;88.02
68801;SHT31;55784;50.734;7.086;2022-12-07T10:30:56;6.70;88.17
68801;SHT31;55784;50.734;7.086;2022-12-07T10:35:56;6.83;87.30
68801;SHT31;55784;50.734;7.086;2022-12-07T10:38:21;6.80;87.57
68801;SHT31;55784;50.734;7.086;2022-12-07T10:40:47;6.60;87.50
68801;SHT31;55784;50.734;7.086;2022-12-07T10:43:16;6.56;87.82
68801;SHT31;55784;50.734;7.086;2022-12-07T10:48:23;6.49;87.78
68801;SHT31;55784;50.734;7.086;2022-12-07T10:51:14;6.56;87.66
68801;SHT31;55784;50.734;7.086;2022-12-07T10:54:27;6.74;86.89
68801;SHT31;55784;50.734;7.086;2022-12-07T10:57:24;6.76;86.96
68801;SHT31;55784;50.734;7.086;2022-12-07T11:00:00;6.83;87.43
68801;SHT31;55784;50.734;7.086;2022-12-07T11:05:28;6.60;87.35
68801;SHT31;55784;50.734;7.086;2022-12-07T11:08:05;6.76;87.47
68801;SHT31;55784;50.734;7.086;2022-12-07T11:10:37;6.69;87.32
68801;SHT31;55784;50.734;7.086;2022-12-07T11:13:12;6.87;86.38
68801;SHT31;55784;50.734;7.086;2022-12-07T11:16:02;6.98;86.01
68801;SHT31;55784;50.734;7.086;2022-12-07T11:21:58;6.97;85.74
68801;SHT31;55784;50.734;7.086;2022-12-07T11:27:06;7.01;85.40
68801;SHT31;55784;50.734;7.086;2022-12-07T11:35:08;7.14;84.70
68801;SHT31;55784;50.734;7.086;2022-12-07T11:37:37;7.21;84.68
68801;SHT31;55784;50.734;7.086;2022-12-07T11:40:11;7.35;84.05
68801;SHT31;55784;50.734;7.086;2022-12-07T11:42:44;7.46;83.29
68801;SHT31;55784;50.734;7.086;2022-12-07T11:45:25;7.61;82.84
68801;SHT31;55784;50.734;7.086;2022-12-07T11:48:11;7.66;81.97
68801;SHT31;55784;50.734;7.086;2022-12-07T11:50:48;7.59;82.01
68801;SHT31;55784;50.734;7.086;2022-12-07T11:53:26;7.41;82.06
68801;SHT31;55784;50.734;7.086;2022-12-07T11:56:03;7.36;82.15
68801;SHT31;55784;50.734;7.086;2022-12-07T12:03:47;7.25;82.30
68801;SHT31;55784;50.734;7.086;2022-12-07T12:06:13;7.23;82.62
68801;SHT31;55784;50.734;7.086;2022-12-07T12:08:42;7.33;82.69
68801;SHT31;55784;50.734;7.086;2022-12-07T12:19:30;7.25;81.93
68801;SHT31;55784;50.734;7.086;2022-12-07T12:22:26;7.14;82.02
68801;SHT31;55784;50.734;7.086;2022-12-07T12:24:53;7.14;82.81
68801;SHT31;55784;50.734;7.086;2022-12-07T12:27:28;7.09;83.09
68801;SHT31;55784;50.734;7.086;2022-12-07T12:29:57;7.14;83.47
68801;SHT31;55784;50.734;7.086;2022-12-07T12:32:38;7.14;84.20
68801;SHT31;55784;50.734;7.086;2022-12-07T12:35:27;7.01;83.42
68801;SHT31;55784;50.734;7.086;2022-12-07T12:37:54;7.02;84.36
68801;SHT31;55784;50.734;7.086;2022-12-07T12:42:49;7.12;84.22
68801;SHT31;55784;50.734;7.086;2022-12-07T12:45:32;7.14;84.18
68801;SHT31;55784;50.734;7.086;2022-12-07T12:50:42;7.18;83.42
68801;SHT31;55784;50.734;7.086;2022-12-07T12:53:23;7.19;83.64
68801;SHT31;55784;50.734;7.086;2022-12-07T13:00:42;7.00;83.84
68801;SHT31;55784;50.734;7.086;2022-12-07T13:03:22;6.94;84.25
68801;SHT31;55784;50.734;7.086;2022-12-07T13:08:49;6.87;84.42
68801;SHT31;55784;50.734;7.086;2022-12-07T13:11:18;6.81;84.60
68801;SHT31;55784;50.734;7.086;2022-12-07T13:13:45;6.83;84.59
68801;SHT31;55784;50.734;7.086;2022-12-07T13:18:38;6.91;84.49
68801;SHT31;55784;50.734;7.086;2022-12-07T13:31:37;6.53;86.68
68801;SHT31;55784;50.734;7.086;2022-12-07T13:34:27;6.57;87.14
68801;SHT31;55784;50.734;7.086;2022-12-07T13:36:51;6.66;86.96
68801;SHT31;55784;50.734;7.086;2022-12-07T13:39:22;6.67;87.32
68801;SHT31;55784;50.734;7.086;2022-12-07T13:41:53;6.64;87.01
68801;SHT31;55784;50.734;7.086;2022-12-07T13:44:19;6.67;85.78
68801;SHT31;55784;50.734;7.086;2022-12-07T13:49:32;6.71;85.04
68801;SHT31;55784;50.734;7.086;2022-12-07T13:54:43;6.81;85.51
68801;SHT31;55784;50.734;7.086;2022-12-07T13:57:09;6.85;84.89
68801;SHT31;55784;50.734;7.086;2022-12-07T13:59:37;6.84;85.21
68801;SHT31;55784;50.734;7.086;2022-12-07T14:02:18;6.80;84.98
68801;SHT31;55784;50.734;7.086;2022-12-07T14:04:43;6.71;84.51
68801;SHT31;55784;50.734;7.086;2022-12-07T14:09:57;6.49;84.12
68801;SHT31;55784;50.734;7.086;2022-12-07T14:12:25;6.39;84.37
68801;SHT31;55784;50.734;7.086;2022-12-07T14:14:51;6.39;84.79
68801;SHT31;55784;50.734;7.086;2022-12-07T14:17:22;6.29;85.39
68801;SHT31;55784;50.734;7.086;2022-12-07T14:19:56;6.27;86.13
68801;SHT31;55784;50.734;7.086;2022-12-07T14:22:29;6.41;86.57
68801;SHT31;55784;50.734;7.086;2022-12-07T14:25:19;6.33;85.93
68801;SHT31;55784;50.734;7.086;2022-12-07T14:28:24;6.29;84.56
68801;SHT31;55784;50.734;7.086;2022-12-07T14:30:50;6.23;84.38
68801;SHT31;55784;50.734;7.086;2022-12-07T14:33:24;6.16;84.56
68801;SHT31;55784;50.734;7.086;2022-12-07T14:35:49;6.15;85.06
68801;SHT31;55784;50.734;7.086;2022-12-07T14:38:15;6.19;85.11
68801;SHT31;55784;50.734;7.086;2022-12-07T14:40:40;6.22;84.00
68801;SHT31;55784;50.734;7.086;2022-12-07T14:43:09;6.17;83.56
68801;SHT31;55784;50.734;7.086;2022-12-07T14:45:36;6.09;83.76
68801;SHT31;55784;50.734;7.086;2022-12-07T14:48:01;6.08;83.75
68801;SHT31;55784;50.734;7.086;2022-12-07T14:50:26;6.08;84.25
68801;SHT31;55784;50.734;7.086;2022-12-07T14:53:10;6.12;84.89
68801;SHT31;55784;50.734;7.086;2022-12-07T14:55:36;6.13;85.31
68801;SHT31;55784;50.734;7.086;2022-12-07T14:58:01;6.15;85.40
68801;SHT31;55784;50.734;7.086;2022-12-07T15:00:28;6.19;85.91
68801;SHT31;55784;50.734;7.086;2022-12-07T15:02:54;6.22;86.12
68801;SHT31;55784;50.734;7.086;2022-12-07T15:05:20;6.26;86.28
68801;SHT31;55784;50.734;7.086;2022-12-07T15:07:50;6.25;86.74
68801;SHT31;55784;50.734;7.086;2022-12-07T15:10:18;6.29;87.18
68801;SHT31;55784;50.734;7.086;2022-12-07T15:12:44;6.27;87.31
68801;SHT31;55784;50.734;7.086;2022-12-07T15:15:10;6.26;87.97
68801;SHT31;55784;50.734;7.086;2022-12-07T15:17:38;6.27;88.08
68801;SHT31;55784;50.734;7.086;2022-12-07T15:20:09;6.39;88.13
68801;SHT31;55784;50.734;7.086;2022-12-07T15:22:36;6.37;88.15
68801;SHT31;55784;50.734;7.086;2022-12-07T15:25:01;6.40;88.29
68801;SHT31;55784;50.734;7.086;2022-12-07T15:27:27;6.34;88.52
68801;SHT31;55784;50.734;7.086;2022-12-07T15:29:52;6.37;88.72
68801;SHT31;55784;50.734;7.086;2022-12-07T15:32:18;6.33;88.87
68801;SHT31;55784;50.734;7.086;2022-12-07T15:34:44;6.30;88.53
68801;SHT31;55784;50.734;7.086;2022-12-07T15:37:09;6.33;88.12
68801;SHT31;55784;50.734;7.086;2022-12-07T15:39:36;6.30;88.00
68801;SHT31;55784;50.734;7.086;2022-12-07T15:42:02;6.33;87.79
68801;SHT31;55784;50.734;7.086;2022-12-07T15:44:27;6.41;87.68
68801;SHT31;55784;50.734;7.086;2022-12-07T15:47:11;6.33;87.45
68801;SHT31;55784;50.734;7.086;2022-12-07T15:49:37;6.29;87.21
68801;SHT31;55784;50.734;7.086;2022-12-07T15:52:02;6.23;87.42
68801;SHT31;55784;50.734;7.086;2022-12-07T15:54:28;6.25;87.01
68801;SHT31;55784;50.734;7.086;2022-12-07T15:57:01;6.26;87.42
68801;SHT31;55784;50.734;7.086;2022-12-07T15:59:27;6.27;87.11
68801;SHT31;55784;50.734;7.086;2022-12-07T16:01:55;6.25;87.15
68801;SHT31;55784;50.734;7.086;2022-12-07T16:04:21;6.26;87.04
68801;SHT31;55784;50.734;7.086;2022-12-07T16:06:46;6.32;86.70
68801;SHT31;55784;50.734;7.086;2022-12-07T16:09:12;6.25;86.42
68801;SHT31;55784;50.734;7.086;2022-12-07T16:11:37;6.19;86.60
68801;SHT31;55784;50.734;7.086;2022-12-07T16:14:03;6.20;86.98
68801;SHT31;55784;50.734;7.086;2022-12-07T16:16:28;6.29;87.02
68801;SHT31;55784;50.734;7.086;2022-12-07T16:18:54;6.25;86.98
68801;SHT31;55784;50.734;7.086;2022-12-07T16:21:19;6.27;87.07
68801;SHT31;55784;50.734;7.086;2022-12-07T16:23:45;6.27;86.86
68801;SHT31;55784;50.734;7.086;2022-12-07T16:26:15;6.26;86.57
68801;SHT31;55784;50.734;7.086;2022-12-07T16:28:41;6.32;86.80
68801;SHT31;55784;50.734;7.086;2022-12-07T16:31:10;6.29;86.88
68801;SHT31;55784;50.734;7.086;2022-12-07T16:33:38;6.32;86.83
68801;SHT31;55784;50.734;7.086;2022-12-07T16:36:08;6.30;86.91
68801;SHT31;55784;50.734;7.086;2022-12-07T16:38:37;6.30;86.75
68801;SHT31;55784;50.734;7.086;2022-12-07T16:41:06;6.27;86.91
68801;SHT31;55784;50.734;7.086;2022-12-07T16:43:33;6.34;86.90
68801;SHT31;55784;50.734;7.086;2022-12-07T16:45:58;6.39;86.87
68801;SHT31;55784;50.734;7.086;2022-12-07T16:48:24;6.33;86.88
68801;SHT31;55784;50.734;7.086;2022-12-07T16:50:49;6.26;86.81
68801;SHT31;55784;50.734;7.086;2022-12-07T16:53:15;6.26;87.52
68801;SHT31;55784;50.734;7.086;2022-12-07T16:55:43;6.27;87.98
68801;SHT31;55784;50.734;7.086;2022-12-07T16:58:10;6.12;89.18
68801;SHT31;55784;50.734;7.086;2022-12-07T17:00:36;6.08;89.49
68801;SHT31;55784;50.734;7.086;2022-12-07T17:03:10;5.96;90.93
68801;SHT31;55784;50.734;7.086;2022-12-07T17:05:49;5.64;94.70
68801;SHT31;55784;50.734;7.086;2022-12-07T17:08:24;5.48;97.30
68801;SHT31;55784;50.734;7.086;2022-12-07T17:10:50;5.16;96.39
68801;SHT31;55784;50.734;7.086;2022-12-07T17:13:15;5.01;96.72
68801;SHT31;55784;50.734;7.086;2022-12-07T17:16:06;5.06;97.27
68801;SHT31;55784;50.734;7.086;2022-12-07T17:18:34;5.13;98.27
68801;SHT31;55784;50.734;7.086;2022-12-07T17:21:19;5.19;97.68
68801;SHT31;55784;50.734;7.086;2022-12-07T17:26:44;5.27;96.71
68801;SHT31;55784;50.734;7.086;2022-12-07T17:29:12;5.26;95.62
68801;SHT31;55784;50.734;7.086;2022-12-07T17:31:50;5.23;96.24
68801;SHT31;55784;50.734;7.086;2022-12-07T17:34:18;5.28;96.71
68801;SHT31;55784;50.734;7.086;2022-12-07T17:36:44;5.37;97.77
68801;SHT31;55784;50.734;7.086;2022-12-07T17:39:17;5.52;97.66
68801;SHT31;55784;50.734;7.086;2022-12-07T17:41:43;5.58;98.12
68801;SHT31;55784;50.734;7.086;2022-12-07T17:44:28;5.58;96.86
68801;SHT31;55784;50.734;7.086;2022-12-07T17:47:05;5.62;97.61